Alpine, AK

3:49 AM AKST on January 29, 2015 (GMT -0900)
Nuiqsut | Change Station
CLOSE
Current Station
Airport
Location: Nuiqsut,
Elevation: 39 ft
Nearby Weather Stations

Elev 39 ft 70.21 °N, 150.99 °W | Updated 1 hour ago

Clear
Clear
-29 °F
Feels Like -52 °F
N
10
Wind Variable Wind from SSW

Today
High -- | Low -- °F
--% Chance of Precip.
Yesterday
High -- | Low -- °F
Precip. -- in
11:12 AM 3:22 PM
Waxing Gibbous, 74% visible
Pressure 30.61 in
Visibility 10.0 miles
Clouds Clear
Windchill -52 °F
Dew Point -35 °F
Humidity 73%
Rainfall 0.00 in
Snow Depth Not available.
UV 0 out of 12
Pollen Not available.
Air Quality Not available.
Flu Activity Not available.
METAR PAQT 291053Z AUTO 20009KT 10SM CLR M34/M37 A3060 RMK SLP363 T13391372 TSNO VIA AUTODIAL

More Conditions Fewer Conditions

Pressure 30.61 in
Visibility 10.0 miles
Clouds Clear
Windchill -52 °F
Dew Point -35 °F
Humidity 73%
Rainfall 0.00 in
Snow Depth Not available.
UV 0 out of 12
Pollen Not available.
Air Quality Not available.
Flu Activity Not available.
METAR PAQT 291053Z AUTO 20009KT 10SM CLR M34/M37 A3060 RMK SLP363 T13391372 TSNO VIA AUTODIAL

More Conditions Fewer Conditions

10-Day Weather Forecast

Almanac

Astronomy

Jan. 29, 2015 Rise Set
Actual Time
Civil Twilight
Nautical Twilight
Astronomical Twilight
Moon
Length of Visible Light
Length of Day
Tomorrow will be .
, % of the Moon is Illuminated

Today's Extremes

State Highs State Lows

Community

WunderPhotos

Upload Photos

1,791,420 photos uploaded!

WunderBlogs® & News

Nearby

Air Quality

  Air Quality AQ Index Pollutant
Not available.

Snow Depth

Station Depth Elevation

Earthquake Activity

City Distance Mag. Time & Date
Minimum magnitude displayed is 2.5.

Coastal Water Temperatures

Place Temperature

Nearby Weather Stations